.
WxDataArchive / Data Records for 2012-05-27
2012-05-26 May 2012 2012-05-28

Data Records for Sunday, 27 May 2012

Time	Temp	Chill	HIndex	Humid	Dewpt	 Wind 	HiWind	WindDir	Rain 	Barom 
-----	----	-----	------	-----	-----	------	------	-------	-----	----- 
00:00	70.6	70.6	70.6	46	48.8	2	6	68	0.00	30.092 
00:05	70.6	70.6	70.6	46	48.8	1	4	68	0.00	30.092 
00:10	70.4	70.4	70.4	47	49.2	1	4	68	0.00	30.092 
00:15	70.3	70.3	70.3	47	49.1	1	5	112	0.00	30.090 
00:20	70.1	70.1	70.1	47	48.9	1	3	112	0.00	30.090 
00:25	69.9	69.9	69.9	47	48.7	1	2	112	0.00	30.090 
00:30	69.9	69.9	69.9	48	49.3	1	2	112	0.00	30.084 
00:35	69.8	69.8	69.8	48	49.2	2	4	112	0.00	30.084 
00:40	69.6	69.6	69.6	49	49.6	1	4	112	0.00	30.084 
00:45	69.4	69.4	69.4	49	49.4	1	4	68	0.00	30.078 
00:50	69.3	69.3	69.3	50	49.8	1	4	68	0.00	30.078 
00:55	69.1	69.1	69.1	50	49.7	1	3	68	0.00	30.078 
01:00	68.9	68.9	68.9	50	49.5	1	3	68	0.00	30.074 
01:05	68.8	68.8	68.8	51	49.9	1	2	68	0.00	30.074 
01:10	68.6	68.6	68.6	51	49.7	1	3	68	0.00	30.074 
01:15	68.6	68.6	68.6	52	50.3	1	2	68	0.00	30.066 
01:20	68.4	68.4	68.4	52	50.1	1	3	68	0.00	30.066 
01:25	68.3	68.3	68.3	52	50.0	2	5	68	0.00	30.066 
01:30	68.3	68.3	68.3	52	50.0	2	4	90	0.00	30.058 
01:35	68.3	68.3	68.3	53	50.5	1	3	68	0.00	30.058 
01:40	68.1	68.1	68.1	53	50.3	2	5	68	0.00	30.058 
01:45	68.1	68.1	68.1	53	50.3	1	3	68	0.00	30.054 
01:50	68.1	68.1	68.1	53	50.3	1	3	68	0.00	30.054 
01:55	68.1	68.1	68.1	54	50.8	1	3	68	0.00	30.054 
02:00	68.1	68.1	68.1	54	50.8	1	4	68	0.00	30.057 
02:05	68.1	68.1	68.1	54	50.8	1	3	68	0.00	30.057 
02:10	68.1	68.1	68.1	54	50.8	1	3	68	0.00	30.057 
02:15	68.1	68.1	68.1	54	50.8	2	5	90	0.00	30.055 
02:20	68.1	68.1	68.1	54	50.8	1	4	90	0.00	30.055 
02:25	68.1	68.1	68.1	55	51.3	1	3	90	0.00	30.055 
02:30	67.9	67.9	67.9	55	51.1	1	5	68	0.00	30.054 
02:35	67.9	67.9	67.9	56	51.6	1	2	68	0.00	30.054 
02:40	67.8	67.8	67.8	56	51.5	1	5	68	0.00	30.054 
02:45	67.8	67.8	67.8	57	52.0	1	2	68	0.00	30.048 
02:50	67.6	67.6	67.6	57	51.8	0	2	68	0.00	30.048 
02:55	67.6	67.6	67.6	58	52.3	0	2	68	0.00	30.048 
03:00	67.4	67.4	67.4	58	52.1	0	1	68	0.00	30.050 
03:05	67.3	67.3	67.3	58	52.0	0	2	68	0.00	30.050 
03:10	67.3	67.3	67.3	59	52.5	1	3	68	0.00	30.050 
03:15	67.1	67.1	67.1	59	52.3	1	3	68	0.00	30.038 
03:20	67.1	67.1	67.1	59	52.3	1	3	68	0.00	30.038 
03:25	66.9	66.9	66.9	60	52.6	1	5	68	0.00	30.038 
03:30	66.9	66.9	66.9	60	52.6	0	2	68	0.00	30.031 
03:35	66.8	66.8	66.8	61	52.9	0	2	68	0.00	30.031 
03:40	66.6	66.6	66.6	61	52.7	0	2	68	0.00	30.031 
03:45	66.6	66.6	66.6	61	52.7	0	3	68	0.00	30.021 
03:50	66.6	66.6	66.6	62	53.2	0	1	68	0.00	30.021 
03:55	66.4	66.4	66.4	62	53.0	0	2	68	0.00	30.021 
04:00	66.4	66.4	66.4	62	53.0	1	4	68	0.00	30.010 
04:05	66.4	66.4	66.4	62	53.0	0	1	68	0.00	30.010 
04:10	66.3	66.3	66.3	62	52.9	0	1	68	0.00	30.010 
04:15	66.3	66.3	66.3	63	53.3	0	0	---	0.00	30.012 
04:20	66.1	66.1	66.1	63	53.1	0	1	68	0.00	30.012 
04:25	66.0	66.0	66.0	63	53.0	0	1	68	0.00	30.012 
04:30	66.0	66.0	66.0	64	53.5	0	2	68	0.00	30.008 
04:35	65.8	65.8	65.8	64	53.3	0	1	68	0.00	30.008 
04:40	65.6	65.6	65.6	64	53.1	0	1	68	0.00	30.008 
04:45	65.5	65.5	65.5	65	53.4	0	1	68	0.00	30.007 
04:50	65.3	65.3	65.3	65	53.2	0	1	68	0.00	30.007 
04:55	65.2	65.2	65.2	65	53.1	0	1	68	0.00	30.007 
05:00	65.2	65.2	65.2	66	53.5	0	1	68	0.00	30.006 
05:05	65.0	65.0	65.0	66	53.4	0	1	68	0.00	30.006 
05:10	64.8	64.8	64.8	66	53.2	0	1	68	0.00	30.006 
05:15	64.8	64.8	64.8	66	53.2	0	1	68	0.00	30.006 
05:20	64.7	64.7	64.7	67	53.5	0	0	---	0.00	30.006 
05:25	64.7	64.7	64.7	67	53.5	0	1	68	0.00	30.006 
05:30	64.5	64.5	64.5	67	53.3	0	1	68	0.00	30.007 
05:35	64.5	64.5	64.5	67	53.3	0	0	---	0.00	30.007 
05:40	64.3	64.3	64.3	68	53.5	0	0	---	0.00	30.007 
05:45	64.2	64.2	64.2	68	53.4	0	0	---	0.00	30.008 
05:50	64.2	64.2	64.2	69	53.8	0	1	68	0.00	30.008 
05:55	64.0	64.0	64.0	69	53.6	0	0	---	0.00	30.008 
06:00	64.0	64.0	64.0	69	53.6	0	2	68	0.00	30.009 
06:05	64.0	64.0	64.0	69	53.6	0	1	68	0.00	30.009 
06:10	63.9	63.9	63.9	69	53.5	0	1	68	0.00	30.009 
06:15	63.9	63.9	63.9	69	53.5	0	0	---	0.00	30.010 
06:20	63.9	63.9	63.9	69	53.5	0	0	---	0.00	30.010 
06:25	63.9	63.9	63.9	69	53.5	0	0	---	0.00	30.010 
06:30	63.9	63.9	63.9	69	53.5	0	0	---	0.00	30.014 
06:35	63.9	63.9	63.9	69	53.5	0	0	---	0.00	30.014 
06:40	63.9	63.9	63.9	70	53.9	0	0	---	0.00	30.014 
06:45	63.9	63.9	63.9	71	54.3	0	0	---	0.00	30.022 
06:50	63.7	63.7	63.7	71	54.1	0	0	---	0.00	30.022 
06:55	63.7	63.7	63.7	72	54.5	0	0	---	0.00	30.022 
07:00	63.7	63.7	63.7	72	54.5	0	0	---	0.00	30.026 
07:05	63.7	63.7	63.7	73	54.9	0	0	---	0.00	30.026 
07:10	64.0	64.0	64.0	72	54.8	0	0	---	0.00	30.026 
07:15	64.5	64.5	64.5	71	54.9	0	1	68	0.00	30.035 
07:20	65.0	65.0	65.0	68	54.2	0	2	68	0.00	30.035 
07:25	65.5	65.5	65.5	67	54.2	0	2	68	0.00	30.035 
07:30	66.0	66.0	66.0	67	54.7	0	2	68	0.00	30.032 
07:35	66.4	66.4	66.4	66	54.7	0	1	68	0.00	30.032 
07:40	66.9	66.9	66.9	65	54.7	0	1	68	0.00	30.032 
07:45	67.8	67.8	67.8	64	55.2	0	0	---	0.00	30.038 
07:50	68.4	68.4	68.4	63	55.3	0	2	68	0.00	30.038 
07:55	68.9	68.9	68.9	62	55.3	0	2	68	0.00	30.038 
08:00	69.3	69.3	69.3	61	55.3	0	3	68	0.00	30.032 
08:05	69.8	69.8	69.8	61	55.7	0	1	68	0.00	30.032 
08:10	70.1	70.1	70.1	61	56.0	0	2	68	0.00	30.032 
08:15	70.6	70.6	70.6	60	56.0	0	3	68	0.00	30.035 
08:20	71.1	71.1	71.1	60	56.5	0	2	68	0.00	30.035 
08:25	71.5	71.5	71.5	61	57.3	0	1	68	0.00	30.035 
08:30	72.1	72.1	72.1	59	57.0	0	1	68	0.00	30.030 
08:35	73.0	73.0	73.0	58	57.3	0	1	68	0.00	30.030 
08:40	73.5	73.5	73.5	57	57.3	0	2	68	0.00	30.030 
08:45	73.5	73.5	73.5	58	57.8	0	1	68	0.00	30.030 
08:50	73.9	73.9	73.9	59	58.7	0	1	68	0.00	30.030 
08:55	74.4	74.4	74.4	58	58.6	0	1	68	0.00	30.030 
09:00	74.7	74.7	74.7	58	58.9	0	1	68	0.00	30.034 
09:05	75.1	75.1	77.5	58	59.3	1	3	68	0.00	30.034 
09:10	75.4	75.4	77.7	58	59.6	1	3	68	0.00	30.034 
09:15	76.0	76.0	78.1	57	59.6	1	3	68	0.00	30.029 
09:20	76.5	76.5	78.4	57	60.1	0	2	68	0.00	30.029 
09:25	77.2	77.2	78.9	56	60.3	0	2	68	0.00	30.029 
09:30	77.9	77.9	79.5	57	61.4	0	2	68	0.00	30.024 
09:35	78.3	78.3	79.9	58	62.3	0	1	68	0.00	30.024 
09:40	78.8	78.8	80.2	56	61.8	0	2	68	0.00	30.024 
09:45	79.6	79.6	81.0	56	62.5	0	2	68	0.00	30.020 
09:50	80.1	80.1	81.5	56	63.0	0	2	90	0.00	30.020 
09:55	80.5	80.5	81.9	56	63.3	1	3	90	0.00	30.020 
10:00	80.5	80.5	81.8	55	62.8	1	2	90	0.00	30.016 
10:05	80.9	80.9	82.4	56	63.7	0	3	90	0.00	30.016 
10:10	81.6	81.6	83.2	56	64.4	0	2	90	0.00	30.016 
10:15	82.4	82.4	84.1	55	64.6	1	3	0	0.00	30.008 
10:20	83.0	83.0	84.7	54	64.6	1	3	112	0.00	30.008 
10:25	83.6	83.6	85.2	53	64.6	1	4	338	0.00	30.008 
10:30	83.6	83.6	85.5	54	65.2	1	2	315	0.00	30.004 
10:35	83.0	83.0	84.5	53	64.1	1	3	315	0.00	30.004 
10:40	82.4	82.4	83.9	54	64.1	1	3	315	0.00	30.004 
10:45	82.2	82.2	83.8	55	64.4	0	1	315	0.00	30.008 
10:50	82.6	82.6	84.5	56	65.3	0	1	315	0.00	30.008 
10:55	83.4	83.4	85.2	54	65.0	0	2	315	0.00	30.008 
11:00	83.8	83.8	85.7	54	65.3	1	4	315	0.00	30.007 
11:05	84.0	84.0	85.6	52	64.4	1	3	315	0.00	30.007 
11:10	84.1	84.1	85.9	53	65.1	0	2	315	0.00	30.007 
11:15	84.7	84.7	86.8	53	65.6	1	2	315	0.00	30.007 
11:20	85.1	85.1	86.9	51	64.9	1	2	315	0.00	30.007 
11:25	85.1	85.1	87.7	54	66.6	0	3	315	0.00	30.007 
11:30	85.5	85.5	87.4	51	65.3	0	1	315	0.00	30.007 
11:35	86.3	86.3	88.3	50	65.4	0	2	315	0.00	30.007 
11:40	87.4	87.4	89.7	49	65.9	1	3	0	0.00	30.007 
11:45	88.2	88.2	90.3	47	65.4	1	3	0	0.00	30.005 
11:50	88.4	88.4	90.3	46	64.9	0	1	0	0.00	30.005 
11:55	88.6	88.6	91.0	47	65.7	1	3	0	0.00	30.005 
12:00	88.8	88.8	90.9	46	65.3	1	4	270	0.00	30.005 
12:05	88.8	88.8	90.6	45	64.7	0	1	270	0.00	30.005 
12:10	89.0	89.0	90.9	45	64.9	0	1	270	0.00	30.005 
12:15	89.0	89.0	91.2	46	65.5	0	3	270	0.00	30.007 
12:20	89.3	89.3	90.6	43	63.8	1	3	270	0.00	30.007 
12:25	89.3	89.3	90.6	43	63.8	2	5	270	0.00	30.007 
12:30	88.8	88.8	90.2	44	64.0	1	2	315	0.00	30.005 
12:35	89.0	89.0	90.5	44	64.2	0	1	315	0.00	30.005 
12:40	89.3	89.3	91.0	44	64.5	1	4	270	0.00	30.005 
12:45	89.5	89.5	91.0	43	64.0	0	1	270	0.00	30.001 
12:50	90.1	90.1	91.5	42	63.9	1	3	270	0.00	30.001 
12:55	90.7	90.7	92.5	42	64.4	0	2	68	0.00	30.001 
13:00	91.6	91.6	93.1	40	63.8	1	2	292	0.00	29.988 
13:05	92.1	92.1	93.5	39	63.5	1	3	292	0.00	29.988 
13:10	92.1	92.1	93.5	39	63.5	2	5	338	0.00	29.988 
13:15	91.8	91.8	92.3	37	61.8	2	4	292	0.00	29.986 
13:20	91.6	91.6	92.7	39	63.1	1	4	315	0.00	29.986 
13:25	92.1	92.1	93.5	39	63.5	1	4	315	0.00	29.986 
13:30	92.7	92.7	94.1	38	63.3	1	4	90	0.00	29.981 
13:35	92.5	92.5	93.4	37	62.4	2	4	270	0.00	29.981 
13:40	92.7	92.7	92.9	35	61.0	2	4	270	0.00	29.981 
13:45	92.7	92.7	93.7	37	62.6	1	3	315	0.00	29.976 
13:50	92.9	92.9	93.6	36	62.0	1	5	270	0.00	29.976 
13:55	93.2	93.2	93.7	35	61.4	2	4	112	0.00	29.976 
14:00	92.9	92.9	93.2	35	61.2	2	5	270	0.00	29.971 
14:05	92.7	92.7	93.3	36	61.8	2	4	270	0.00	29.971 
14:10	92.9	92.9	93.6	36	62.0	1	2	248	0.00	29.971 
14:15	93.4	93.4	92.2	30	57.3	1	4	248	0.00	29.966 
14:20	93.8	93.8	93.1	31	58.5	2	5	292	0.00	29.966 
14:25	93.8	93.8	93.8	33	60.3	1	4	270	0.00	29.966 
14:30	94.0	94.0	93.3	31	58.7	2	3	90	0.00	29.955 
14:35	94.3	94.3	94.5	33	60.7	1	3	180	0.00	29.955 
14:40	94.3	94.3	92.4	27	55.1	2	4	270	0.00	29.955 
14:45	94.7	94.7	94.0	30	58.4	1	4	270	0.00	29.951 
14:50	94.9	94.9	94.6	31	59.5	1	4	270	0.00	29.951 
14:55	95.1	95.1	94.9	31	59.7	1	4	45	0.00	29.951 
15:00	95.1	95.1	94.2	29	57.8	1	3	248	0.00	29.945 
15:05	95.1	95.1	94.6	30	58.7	2	5	68	0.00	29.945 
15:10	95.1	95.1	94.9	31	59.7	1	4	90	0.00	29.945 
15:15	95.1	95.1	94.9	31	59.7	1	5	270	0.00	29.939 
15:20	95.1	95.1	94.6	30	58.7	1	4	315	0.00	29.939 
15:25	95.4	95.4	95.0	30	59.0	1	3	270	0.00	29.939 
15:30	95.4	95.4	95.4	31	59.9	2	5	270	0.00	29.936 
15:35	95.4	95.4	94.6	29	58.0	1	4	248	0.00	29.936 
15:40	95.6	95.6	94.5	28	57.2	1	4	248	0.00	29.936 
15:45	95.4	95.4	95.0	30	59.0	1	4	292	0.00	29.927 
15:50	95.9	95.9	94.9	28	57.5	1	3	292	0.00	29.927 
15:55	95.9	95.9	94.9	28	57.5	1	3	270	0.00	29.927 
16:00	95.9	95.9	95.3	29	58.5	1	3	270	0.00	29.923 
16:05	96.3	96.3	95.5	28	57.8	1	4	270	0.00	29.923 
16:10	96.1	96.1	95.2	28	57.7	2	6	270	0.00	29.923 
16:15	96.1	96.1	94.9	27	56.7	1	3	225	0.00	29.925 
16:20	96.3	96.3	95.5	28	57.8	1	4	248	0.00	29.925 
16:25	96.3	96.3	95.1	27	56.8	1	3	270	0.00	29.925 
16:30	96.3	96.3	95.1	27	56.8	1	4	270	0.00	29.922 
16:35	96.1	96.1	95.2	28	57.7	2	5	270	0.00	29.922 
16:40	95.9	95.9	94.2	26	55.4	1	4	270	0.00	29.922 
16:45	96.1	96.1	95.2	28	57.7	0	2	248	0.00	29.917 
16:50	95.9	95.9	94.6	27	56.5	2	5	270	0.00	29.917 
16:55	95.9	95.9	94.9	28	57.5	2	3	248	0.00	29.917 
17:00	95.9	95.9	94.9	28	57.5	0	3	270	0.00	29.914 
17:05	96.3	96.3	95.5	28	57.8	0	2	270	0.00	29.914 
17:10	96.3	96.3	95.1	27	56.8	1	4	270	0.00	29.914 
17:15	96.1	96.1	94.5	26	55.6	2	4	270	0.00	29.914 
17:20	96.1	96.1	95.2	28	57.7	1	2	270	0.00	29.914 
17:25	95.9	95.9	94.6	27	56.5	1	3	270	0.00	29.914 
17:30	95.9	95.9	94.6	27	56.5	2	3	270	0.00	29.911 
17:35	95.6	95.6	93.8	26	55.2	1	3	270	0.00	29.911 
17:40	95.6	95.6	93.8	26	55.2	1	5	270	0.00	29.911 
17:45	95.6	95.6	93.5	25	54.1	1	4	270	0.00	29.911 
17:50	95.4	95.4	93.9	27	56.1	1	4	292	0.00	29.911 
17:55	95.1	95.1	93.5	27	55.8	2	4	292	0.00	29.911 
18:00	95.1	95.1	93.5	27	55.8	1	3	292	0.00	29.911 
18:05	95.1	95.1	93.5	27	55.8	1	4	292	0.00	29.911 
18:10	94.9	94.9	93.6	28	56.6	1	4	270	0.00	29.911 
18:15	94.5	94.5	93.0	28	56.3	1	3	270	0.00	29.910 
18:20	94.0	94.0	92.4	28	55.9	1	2	270	0.00	29.910 
18:25	93.8	93.8	92.1	28	55.7	0	3	270	0.00	29.910 
18:30	93.8	93.8	92.4	29	56.7	1	3	270	0.00	29.909 
18:35	93.6	93.6	92.1	29	56.5	1	4	270	0.00	29.909 
18:40	93.4	93.4	91.6	28	55.4	1	3	112	0.00	29.909 
18:45	93.4	93.4	91.9	29	56.3	0	2	112	0.00	29.906 
18:50	93.2	93.2	91.6	29	56.2	1	4	315	0.00	29.906 
18:55	93.2	93.2	91.3	28	55.2	0	2	315	0.00	29.906 
19:00	92.9	92.9	90.9	28	54.9	0	2	315	0.00	29.908 
19:05	92.9	92.9	91.2	29	55.9	0	1	315	0.00	29.908 
19:10	92.7	92.7	90.4	27	53.8	0	3	315	0.00	29.908 
19:15	92.7	92.7	90.7	28	54.8	0	1	292	0.00	29.904 
19:20	92.5	92.5	90.4	28	54.6	0	2	292	0.00	29.904 
19:25	92.5	92.5	91.0	30	56.5	0	1	292	0.00	29.904 
19:30	92.3	92.3	90.5	29	55.4	0	1	292	0.00	29.900 
19:35	92.1	92.1	90.8	31	57.1	0	1	292	0.00	29.900 
19:40	92.1	92.1	90.8	31	57.1	0	0	---	0.00	29.900 
19:45	91.8	91.8	90.4	31	56.8	0	1	292	0.00	29.900 
19:50	91.8	91.8	91.0	33	58.5	0	1	292	0.00	29.900 
19:55	91.6	91.6	90.1	31	56.6	0	0	---	0.00	29.900 
20:00	91.6	91.6	89.8	30	55.7	0	0	---	0.00	29.898 
20:05	91.4	91.4	89.9	31	56.5	0	0	---	0.00	29.898 
20:10	91.2	91.2	90.2	33	58.0	0	0	---	0.00	29.898 
20:15	90.7	90.7	90.1	35	59.2	0	0	---	0.00	29.889 
20:20	90.3	90.3	89.3	34	58.1	0	1	292	0.00	29.889 
20:25	90.3	90.3	89.6	35	58.9	0	0	---	0.00	29.889 
20:30	89.9	89.9	89.0	35	58.5	0	0	---	0.00	29.892 
20:35	89.5	89.5	89.1	37	59.7	0	0	---	0.00	29.892 
20:40	88.8	88.8	88.4	38	59.9	1	4	45	0.00	29.892 
20:45	87.2	87.2	87.6	43	61.9	3	6	90	0.00	29.905 
20:50	85.3	85.3	85.7	45	61.5	3	11	90	0.00	29.905 
20:55	83.8	83.8	84.1	46	60.8	5	14	90	0.00	29.905 
21:00	82.8	82.8	83.3	48	61.1	3	6	112	0.00	29.914 
21:05	82.2	82.2	82.8	49	61.1	2	7	90	0.00	29.914 
21:10	81.6	81.6	82.3	50	61.1	2	5	90	0.00	29.914 
21:15	81.2	81.2	81.9	50	60.8	2	5	90	0.00	29.910 
21:20	81.1	81.1	82.0	51	61.2	3	9	90	0.00	29.910 
21:25	80.7	80.7	81.6	51	60.9	3	5	112	0.00	29.910 
21:30	80.5	80.5	81.5	52	61.2	3	5	90	0.00	29.909 
21:35	80.1	80.1	81.2	53	61.4	2	5	68	0.00	29.909 
21:40	79.9	79.9	81.0	53	61.2	1	5	90	0.00	29.909 
21:45	79.6	79.6	80.7	53	60.9	3	5	90	0.00	29.910 
21:50	79.4	79.4	80.6	54	61.3	3	5	90	0.00	29.910 
21:55	79.0	79.0	80.3	54	60.9	3	7	90	0.00	29.910 
22:00	78.8	78.8	80.1	55	61.2	2	5	68	0.00	29.914 
22:05	78.6	78.6	80.0	55	61.1	2	5	68	0.00	29.914 
22:10	78.5	78.5	79.9	55	61.0	2	4	90	0.00	29.914 
22:15	78.3	78.3	79.8	56	61.3	2	4	90	0.00	29.913 
22:20	78.1	78.1	79.6	56	61.1	1	3	90	0.00	29.913 
22:25	77.9	77.9	79.5	57	61.4	1	3	90	0.00	29.913 
22:30	77.7	77.7	79.3	57	61.2	1	3	90	0.00	29.912 
22:35	77.4	77.4	79.1	58	61.4	1	3	90	0.00	29.912 
22:40	77.2	77.2	78.9	58	61.3	1	3	90	0.00	29.912 
22:45	77.0	77.0	78.8	58	61.1	1	4	90	0.00	29.914 
22:50	77.0	77.0	78.8	59	61.6	0	3	90	0.00	29.914 
22:55	76.8	76.8	78.6	59	61.4	0	1	90	0.00	29.914 
23:00	76.5	76.5	78.4	59	61.1	0	0	---	0.00	29.913 
23:05	76.3	76.3	78.2	60	61.4	0	1	90	0.00	29.913 
23:10	76.1	76.1	78.1	61	61.7	0	0	---	0.00	29.913 
23:15	76.0	76.0	78.0	61	61.6	0	1	90	0.00	29.908 
23:20	75.8	75.8	77.8	61	61.4	0	0	---	0.00	29.908 
23:25	75.6	75.6	77.7	62	61.6	0	0	---	0.00	29.908 
23:30	75.4	75.4	77.5	62	61.5	0	0	---	0.00	29.904 
23:35	75.3	75.3	77.4	63	61.8	0	0	---	0.00	29.904 
23:40	74.9	74.9	74.9	63	61.4	0	0	---	0.00	29.904 
23:45	74.6	74.6	74.6	64	61.6	0	0	---	0.00	29.899 
23:50	74.4	74.4	74.4	65	61.8	0	0	---	0.00	29.899 
23:55	74.0	74.0	74.0	65	61.5	0	0	---	0.00	29.899 

CoCoRaHS
IN-AL-39
A2 Web Hosting
Creative Commons License
GoDaddy
search engine by freefind advanced

loaded 2018-11-12 19:47:46 • last modified 2010-11-18 10:43:29
Privacy PolicyDisclaimer
• wx.awcolley.com is powered by PmWiki v.2002016 •
• all content (unless otherwise noted) © 2018 A W Colley